Time;durP1;ratioP1;P1;durP2;ratioP2;P2;SDS_P1;SDS_P2;PMS_P1;PMS_P2;Temp;Humidity;BMP_temperature;BMP_pressure;BME280_temperature;BME280_humidity;BME280_pressure;Samples;Min_cycle;Max_cycle;Signal;HPM_P1;HPM_P2
2022/12/30 08:00:30;;;;;;;4.07;2.87;;;2.60;99.90;;;;;;5143797;27;20278;-82
2022/12/30 08:02:56;;;;;;;4.00;3.03;;;2.60;99.90;;;;;;5143535;28;20175;-83
2022/12/30 08:05:22;;;;;;;3.63;2.77;;;2.60;99.90;;;;;;5143508;28;20188;-83
2022/12/30 08:07:48;;;;;;;2.43;2.23;;;;;;;;;;5144021;28;20159;-83
2022/12/30 08:10:14;;;;;;;2.53;2.33;;;2.80;99.90;;;;;;5152307;27;20207;-82
2022/12/30 08:12:39;;;;;;;2.40;2.20;;;2.90;99.90;;;;;;5142416;28;20651;-83
2022/12/30 08:15:05;;;;;;;3.80;2.77;;;2.90;99.90;;;;;;5141718;28;20195;-82
2022/12/30 08:17:31;;;;;;;3.97;3.57;;;3.00;99.90;;;;;;5142064;28;20250;-84
2022/12/30 08:19:56;;;;;;;3.47;2.80;;;3.00;99.90;;;;;;5142193;28;20231;-84
2022/12/30 08:22:22;;;;;;;3.33;2.93;;;3.10;99.90;;;;;;5146364;28;20179;-83
2022/12/30 08:24:48;;;;;;;6.63;3.77;;;3.10;99.90;;;;;;5150551;27;20190;-83
2022/12/30 08:27:13;;;;;;;3.60;3.30;;;3.30;99.90;;;;;;5146752;27;20193;-85
2022/12/30 08:29:39;;;;;;;3.50;2.73;;;3.60;99.90;;;;;;5137910;28;20210;-83
2022/12/30 08:32:05;;;;;;;3.23;2.90;;;3.70;99.90;;;;;;5137887;28;20205;-85
2022/12/30 08:34:30;;;;;;;4.83;3.23;;;3.60;99.90;;;;;;5136477;28;20180;-85
2022/12/30 08:36:56;;;;;;;3.53;3.13;;;4.00;99.90;;;;;;5138795;28;20204;-86
2022/12/30 08:39:22;;;;;;;4.47;2.60;;;4.50;99.90;;;;;;5141162;28;20205;-84
2022/12/30 08:41:48;;;;;;;3.17;2.60;;;5.00;99.90;;;;;;5141308;28;20181;-84
2022/12/30 08:44:14;;;;;;;3.30;2.67;;;4.90;99.90;;;;;;5136958;28;20261;-83
2022/12/30 08:46:40;;;;;;;2.80;2.27;;;4.80;99.90;;;;;;5064143;27;20681;-84
2022/12/30 08:49:07;;;;;;;2.70;2.20;;;4.70;99.90;;;;;;5054841;28;20206;-83
2022/12/30 08:51:33;;;;;;;2.63;1.83;;;4.80;99.90;;;;;;5057364;28;20172;-84
2022/12/30 08:53:59;;;;;;;3.47;2.40;;;5.30;99.90;;;;;;5053314;28;20182;-76
2022/12/30 08:56:31;;;;;;;2.40;1.90;;;5.70;99.90;;;;;;5054921;28;20280;-82
2022/12/30 08:58:58;;;;;;;3.20;2.13;;;6.20;99.90;;;;;;5055802;28;20318;-81
2022/12/30 09:01:26;;;;;;;2.40;1.40;;;6.50;99.90;;;;;;5056935;28;20673;-83
2022/12/30 09:03:53;;;;;;;1.20;0.90;;;6.80;99.90;;;;;;5055711;28;20186;-82
2022/12/30 09:06:21;;;;;;;2.10;1.90;;;6.80;99.90;;;;;;5055507;28;20184;-83
2022/12/30 09:08:48;;;;;;;1.70;1.53;;;6.60;99.90;;;;;;5057627;28;20221;-83
2022/12/30 09:11:23;;;;;;;2.40;1.40;;;7.10;99.90;;;;;;5045467;28;20656;-83
2022/12/30 09:13:50;;;;;;;3.00;1.70;;;7.60;99.90;;;;;;5044374;28;20162;-83
2022/12/30 09:16:19;;;;;;;2.57;2.37;;;7.80;99.90;;;;;;5043146;28;20189;-83
2022/12/30 09:18:45;;;;;;;2.10;1.53;;;7.90;99.90;;;;;;5042536;28;20725;-83
2022/12/30 09:21:11;;;;;;;1.57;1.20;;;8.10;99.90;;;;;;5042382;28;20188;-83
2022/12/30 09:23:37;;;;;;;1.83;1.63;;;8.20;99.90;;;;;;5043296;28;20202;-83
2022/12/30 09:26:04;;;;;;;1.73;1.40;;;8.50;99.90;;;;;;5043983;28;20676;-83
2022/12/30 09:28:31;;;;;;;1.40;1.20;;;8.70;99.90;;;;;;5041373;28;20205;-83
2022/12/30 09:30:57;;;;;;;1.20;1.10;;;8.80;99.90;;;;;;5041843;28;20174;-83
2022/12/30 09:33:22;;;;;;;3.30;1.30;;;9.10;99.90;;;;;;5043462;28;20198;-83
2022/12/30 09:35:48;;;;;;;2.10;1.90;;;9.40;99.90;;;;;;5041969;28;20644;-83
2022/12/30 09:38:14;;;;;;;1.20;1.10;;;9.60;99.90;;;;;;5041918;28;20606;-83
2022/12/30 09:43:14;;;;;;;1.50;1.20;;;9.80;99.90;;;;;;5042204;28;20531;-83
2022/12/30 09:44:36;;;;;;;1.13;1.03;;;10.10;99.90;;;;;;5043256;28;20181;-83
2022/12/30 09:47:20;;;;;;;1.37;1.10;;;10.30;99.90;;;;;;5041983;28;20166;-83
2022/12/30 09:49:59;;;;;;;1.30;1.10;;;10.50;99.90;;;;;;5042816;28;20202;-83
2022/12/30 09:53:14;;;;;;;1.10;1.00;;;10.60;99.90;;;;;;5042714;28;20163;-83
2022/12/30 09:55:54;;;;;;;2.27;1.83;;;10.90;99.90;;;;;;5037234;28;20194;-84
2022/12/30 09:58:26;;;;;;;3.10;2.80;;;10.80;99.90;;;;;;5042766;28;20204;-84
2022/12/30 10:00:53;;;;;;;2.20;1.47;;;10.40;99.90;;;;;;5041329;28;20172;-86
2022/12/30 10:03:28;;;;;;;2.03;1.60;;;10.00;99.90;;;;;;5038570;28;20208;-85
2022/12/30 10:06:03;;;;;;;1.63;1.43;;;10.10;99.90;;;;;;5038178;28;20210;-85
2022/12/30 10:08:58;;;;;;;1.73;1.63;;;10.30;99.90;;;;;;5039759;28;20198;-85
2022/12/30 10:11:57;;;;;;;2.13;1.70;;;10.50;99.90;;;;;;5038466;28;20168;-85
2022/12/30 10:14:46;;;;;;;1.93;1.73;;;10.80;99.90;;;;;;5029925;28;20723;-84
2022/12/30 10:17:42;;;;;;;2.50;1.87;;;10.70;99.90;;;;;;5042274;28;20188;-84
2022/12/30 10:20:38;;;;;;;2.17;1.67;;;10.80;99.90;;;;;;5041348;28;20216;-84
2022/12/30 10:23:12;;;;;;;4.13;1.87;;;10.90;99.90;;;;;;5042790;28;20170;-85
2022/12/30 10:25:49;;;;;;;2.50;1.43;;;11.00;99.90;;;;;;5039946;28;20163;-84
2022/12/30 10:28:24;;;;;;;1.93;1.70;;;10.80;99.90;;;;;;5041788;28;20161;-84
2022/12/30 10:30:49;;;;;;;4.43;2.90;;;11.00;99.90;;;;;;5040065;28;20624;-84
2022/12/30 10:33:23;;;;;;;4.43;1.90;;;11.10;99.90;;;;;;5039915;28;20177;-84
2022/12/30 10:35:56;;;;;;;1.90;1.70;;;11.20;99.90;;;;;;5041619;28;20169;-84
2022/12/30 10:38:28;;;;;;;2.37;1.80;;;11.50;99.90;;;;;;5039369;28;20201;-84
2022/12/30 10:41:33;;;;;;;2.27;1.70;;;11.70;99.90;;;;;;5039549;28;20167;-84
2022/12/30 10:44:30;;;;;;;2.07;1.40;;;12.10;99.90;;;;;;5039124;28;20218;-84
2022/12/30 10:46:55;;;;;;;2.13;1.50;;;12.30;99.90;;;;;;5013915;28;20186;-84
2022/12/30 10:49:33;;;;;;;2.70;1.57;;;11.90;99.90;;;;;;5040023;28;20205;-84
2022/12/30 10:52:01;;;;;;;2.03;1.40;;;11.90;99.90;;;;;;5039902;28;20189;-84
2022/12/30 10:54:27;;;;;;;1.53;1.43;;;11.30;99.90;;;;;;5040274;28;20268;-84
2022/12/30 10:56:52;;;;;;;2.10;1.90;;;11.50;99.90;;;;;;5040532;28;20683;-84
2022/12/30 10:59:23;;;;;;;4.07;1.50;;;11.80;99.90;;;;;;5040398;28;20210;-84
2022/12/30 11:01:58;;;;;;;1.70;1.57;;;11.90;99.90;;;;;;5040758;28;20158;-84
2022/12/30 11:04:38;;;;;;;2.30;1.73;;;12.20;99.90;;;;;;5040945;28;20523;-84
2022/12/30 11:07:07;;;;;;;3.90;3.23;;;12.50;99.90;;;;;;5039978;28;20170;-84
2022/12/30 11:09:34;;;;;;;1.60;1.50;;;12.70;99.90;;;;;;5039701;28;20285;-85
2022/12/30 11:15:01;;;;;;;2.17;1.80;;;12.60;99.90;;;;;;5040842;28;20181;-84
2022/12/30 11:17:29;;;;;;;1.50;1.30;;;12.80;99.90;;;;;;5038292;28;20170;-84
2022/12/30 11:19:59;;;;;;;1.37;1.20;;;12.80;99.90;;;;;;5040094;28;20271;-84
2022/12/30 11:22:25;;;;;;;1.50;1.40;;;12.90;99.90;;;;;;5041721;28;20197;-84
2022/12/30 11:25:26;;;;;;;1.57;1.37;;;13.10;99.90;;;;;;5042571;28;20190;-84
2022/12/30 11:27:55;;;;;;;2.47;2.27;;;13.40;99.90;;;;;;5041182;28;20168;-83
2022/12/30 11:30:39;;;;;;;3.57;2.73;;;13.80;99.90;;;;;;5038527;28;20233;-83
2022/12/30 11:33:16;;;;;;;3.23;1.70;;;14.00;99.90;;;;;;5044527;28;20189;-83
2022/12/30 11:35:49;;;;;;;2.33;1.27;;;14.10;99.90;;;;;;5043238;28;20189;-83
2022/12/30 11:38:36;;;;;;;1.37;1.07;;;14.40;99.90;;;;;;5043222;28;20186;-84
2022/12/30 11:41:18;;;;;;;2.37;1.30;;;14.60;99.90;;;;;;5042923;28;20178;-83
2022/12/30 11:44:10;;;;;;;2.23;1.30;;;14.50;99.90;;;;;;5042675;28;20201;-84
2022/12/30 11:46:38;;;;;;;1.47;1.27;;;14.50;99.90;;;;;;5045673;28;20175;-84
2022/12/30 11:49:36;;;;;;;1.53;1.13;;;14.70;99.90;;;;;;5044915;28;20203;-84
2022/12/30 11:52:28;;;;;;;1.73;1.23;;;14.80;99.90;;;;;;5043787;28;20198;-84
2022/12/30 11:54:57;;;;;;;1.93;1.53;;;14.70;99.90;;;;;;5043801;28;20186;-84
2022/12/30 11:57:37;;;;;;;1.87;1.57;;;14.40;99.90;;;;;;5043778;28;20197;-83
2022/12/30 12:00:20;;;;;;;2.30;1.93;;;14.10;99.90;;;;;;5044583;28;20229;-84
2022/12/30 12:02:49;;;;;;;2.80;1.50;;;13.60;99.90;;;;;;5046499;28;20177;-83
2022/12/30 12:05:27;;;;;;;3.10;1.20;;;13.50;99.90;;;;;;5042322;28;20693;-84
2022/12/30 12:08:15;;;;;;;2.50;1.17;;;13.40;99.90;;;;;;5048206;28;20181;-84
2022/12/30 12:10:42;;;;;;;1.47;1.30;;;13.20;99.90;;;;;;5045807;28;20266;-83
2022/12/30 12:13:27;;;;;;;1.87;1.20;;;12.80;99.90;;;;;;5044021;28;20220;-83
2022/12/30 12:15:56;;;;;;;3.00;1.93;;;12.70;99.90;;;;;;5041460;28;20173;-82
2022/12/30 12:18:32;;;;;;;1.90;1.47;;;12.30;99.90;;;;;;5041822;28;20201;-84
2022/12/30 12:21:12;;;;;;;2.80;1.93;;;11.80;99.90;;;;;;5042171;28;20174;-84
2022/12/30 12:23:44;;;;;;;3.37;2.37;;;11.60;99.90;;;;;;5040400;28;20632;-84
2022/12/30 12:26:16;;;;;;;2.30;1.60;;;11.50;99.90;;;;;;5040611;28;20199;-83
2022/12/30 12:28:44;;;;;;;1.40;1.30;;;11.40;99.90;;;;;;5041374;28;20199;-84
2022/12/30 12:31:26;;;;;;;2.20;1.63;;;11.20;99.90;;;;;;5040401;28;20250;-83
2022/12/30 12:34:31;;;;;;;2.03;1.47;;;11.10;99.90;;;;;;5040828;28;20276;-84
2022/12/30 12:37:25;;;;;;;2.03;1.43;;;10.80;99.90;;;;;;5027503;28;20187;-84
2022/12/30 12:40:43;;;;;;;2.10;1.57;;;10.70;99.90;;;;;;5023199;28;20229;-83
2022/12/30 12:43:51;;;;;;;2.07;1.50;;;10.70;99.90;;;;;;5037055;28;20183;-84
2022/12/30 12:46:36;;;;;;;2.47;1.57;;;10.60;99.90;;;;;;5043601;28;20167;-84
2022/12/30 12:49:01;;;;;;;3.57;1.20;;;10.50;99.90;;;;;;5045440;28;20202;-84
2022/12/30 12:51:33;;;;;;;1.93;1.47;;;10.50;99.90;;;;;;5045634;28;20189;-84
2022/12/30 12:54:29;;;;;;;1.90;1.43;;;10.50;99.90;;;;;;5044827;28;20176;-84
2022/12/30 12:57:10;;;;;;;2.20;1.40;;;10.30;99.90;;;;;;5043346;28;20182;-84
2022/12/30 13:00:04;;;;;;;2.30;1.20;;;10.30;99.90;;;;;;5045626;28;20225;-84
2022/12/30 13:02:49;;;;;;;2.10;1.50;;;10.30;99.90;;;;;;5044411;28;20175;-84
2022/12/30 13:05:51;;;;;;;1.63;1.53;;;10.40;99.90;;;;;;5026333;28;20187;-85
2022/12/30 13:08:55;;;;;;;1.73;1.40;;;10.40;99.90;;;;;;5023755;28;20213;-84
2022/12/30 13:11:46;;;;;;;2.00;1.30;;;10.50;99.90;;;;;;4993791;28;20190;-84
2022/12/30 13:14:17;;;;;;;1.63;1.53;;;10.50;99.90;;;;;;5023425;28;20195;-84
2022/12/30 13:16:48;;;;;;;1.80;1.70;;;10.60;99.90;;;;;;5025130;28;20174;-84
2022/12/30 13:19:17;;;;;;;2.47;1.73;;;10.40;99.90;;;;;;5039974;28;20218;-84
2022/12/30 13:21:45;;;;;;;1.47;1.37;;;10.30;99.90;;;;;;5024629;28;20190;-84
2022/12/30 13:24:23;;;;;;;2.17;1.53;;;10.30;99.90;;;;;;5024791;28;20653;-83
2022/12/30 13:26:50;;;;;;;2.57;1.97;;;10.20;99.90;;;;;;5023892;28;20255;-85
2022/12/30 13:29:16;;;;;;;2.10;1.73;;;10.00;99.90;;;;;;5025323;28;20199;-85
2022/12/30 13:32:09;;;;;;;3.27;1.80;;;9.80;99.90;;;;;;5023263;28;20653;-84
2022/12/30 13:34:38;;;;;;;2.53;1.90;;;9.70;99.90;;;;;;5023962;28;20179;-84
2022/12/30 13:37:23;;;;;;;2.27;1.87;;;9.60;99.90;;;;;;5024711;28;20217;-84
2022/12/30 13:40:03;;;;;;;2.40;1.80;;;9.50;99.90;;;;;;5028595;28;20539;-84
2022/12/30 13:42:44;;;;;;;2.80;1.80;;;9.40;99.90;;;;;;5027000;28;20232;-84
2022/12/30 13:45:20;;;;;;;2.40;1.80;;;9.30;99.90;;;;;;5022128;28;20273;-84
2022/12/30 13:47:46;;;;;;;2.47;1.63;;;9.20;99.90;;;;;;5022699;28;20166;-84
2022/12/30 13:50:18;;;;;;;2.73;2.10;;;9.10;99.90;;;;;;5022959;28;20719;-83
2022/12/30 13:52:56;;;;;;;5.60;3.40;;;9.10;99.90;;;;;;5022077;28;20183;-83
2022/12/30 13:55:34;;;;;;;3.90;2.90;;;9.10;99.90;;;;;;5021245;28;20213;-83
2022/12/30 13:58:13;;;;;;;3.47;2.70;;;9.10;99.90;;;;;;5021468;28;20193;-83
2022/12/30 14:00:41;;;;;;;3.10;2.33;;;9.10;99.90;;;;;;5022097;28;20200;-83
2022/12/30 14:03:17;;;;;;;2.63;2.00;;;9.10;99.90;;;;;;5021577;28;20198;-83
2022/12/30 14:05:43;;;;;;;2.07;1.60;;;9.00;99.90;;;;;;5024268;28;20266;-84
2022/12/30 14:08:24;;;;;;;1.87;1.57;;;8.90;99.90;;;;;;5024460;28;20182;-84
2022/12/30 14:11:02;;;;;;;2.23;1.57;;;8.80;99.90;;;;;;5024126;28;20637;-83
2022/12/30 14:13:30;;;;;;;2.73;1.70;;;8.80;99.90;;;;;;5025672;28;20194;-84
2022/12/30 14:16:00;;;;;;;6.33;1.90;;;8.80;99.90;;;;;;5024318;28;20539;-83
2022/12/30 14:18:51;;;;;;;2.00;1.80;;;8.80;99.90;;;;;;5024039;28;20209;-84
2022/12/30 14:21:19;;;;;;;3.03;1.97;;;8.80;99.90;;;;;;5023596;28;20693;-84
2022/12/30 14:23:51;;;;;;;2.43;1.97;;;8.80;99.90;;;;;;5022849;28;20178;-84
2022/12/30 14:26:20;;;;;;;2.47;1.70;;;8.80;99.90;;;;;;5024102;28;20206;-84
2022/12/30 14:28:52;;;;;;;2.50;1.93;;;8.80;99.90;;;;;;5024172;28;20212;-84
2022/12/30 14:31:28;;;;;;;7.63;5.23;;;8.80;99.90;;;;;;5024875;28;20186;-84
2022/12/30 14:33:58;;;;;;;15.90;10.33;;;8.80;99.90;;;;;;5028384;28;20197;-84
2022/12/30 14:36:27;;;;;;;7.07;4.80;;;8.70;99.90;;;;;;5034634;28;20181;-83
2022/12/30 14:38:58;;;;;;;4.00;2.50;;;8.70;99.90;;;;;;5037004;28;20281;-83
2022/12/30 14:41:36;;;;;;;6.20;3.20;;;8.60;99.90;;;;;;5024504;28;20161;-83
2022/12/30 14:44:06;;;;;;;4.50;2.80;;;8.50;99.90;;;;;;5028347;28;20173;-84
2022/12/30 14:46:36;;;;;;;6.00;2.80;;;8.60;99.90;;;;;;5026853;28;20218;-83
2022/12/30 14:49:21;;;;;;;4.70;2.50;;;8.60;99.90;;;;;;5057190;28;20321;-83
2022/12/30 14:52:09;;;;;;;3.40;2.83;;;8.60;99.90;;;;;;5054214;28;20259;-83
2022/12/30 14:54:44;;;;;;;6.33;3.03;;;8.50;99.90;;;;;;5017160;28;20243;-83
2022/12/30 14:57:11;;;;;;;26.83;11.90;;;8.50;99.90;;;;;;5021720;28;20539;-83
2022/12/30 14:59:50;;;;;;;34.60;14.97;;;8.50;99.90;;;;;;5032282;28;20213;-84
2022/12/30 15:02:28;;;;;;;15.83;7.37;;;8.50;99.90;;;;;;5052792;28;20172;-84
2022/12/30 15:05:07;;;;;;;16.60;8.30;;;8.50;99.90;;;;;;5025939;28;20172;-84
2022/12/30 15:07:34;;;;;;;24.83;14.00;;;8.50;99.90;;;;;;5042563;28;20241;-84
2022/12/30 15:10:03;;;;;;;29.00;16.13;;;8.20;99.90;;;;;;5037904;28;20211;-83
2022/12/30 15:12:29;;;;;;;7.80;4.80;;;8.60;99.90;;;;;;5039703;28;20184;-84
2022/12/30 15:14:57;;;;;;;5.80;3.80;;;8.40;99.90;;;;;;5028915;28;20196;-84
2022/12/30 15:17:31;;;;;;;8.30;5.60;;;8.30;99.90;;;;;;5050591;28;20252;-84
2022/12/30 15:19:58;;;;;;;7.23;5.10;;;8.40;99.90;;;;;;5041585;28;20220;-83
2022/12/30 15:22:29;;;;;;;9.07;6.43;;;8.30;99.90;;;;;;5041277;28;20187;-84
2022/12/30 15:24:55;;;;;;;9.23;6.43;;;8.30;99.90;;;;;;5022236;28;20188;-84
2022/12/30 15:27:30;;;;;;;6.10;4.20;;;8.30;99.90;;;;;;5032187;28;20180;-83
2022/12/30 15:30:12;;;;;;;9.60;7.77;;;8.30;99.90;;;;;;5052162;28;20270;-83
2022/12/30 15:32:38;;;;;;;9.13;5.27;;;8.20;99.90;;;;;;5062652;28;20176;-83
2022/12/30 15:35:19;;;;;;;9.67;4.90;;;8.20;99.90;;;;;;5042371;28;20302;-83
2022/12/30 15:37:47;;;;;;;10.40;6.17;;;8.20;99.90;;;;;;5041608;28;20177;-83
2022/12/30 15:40:25;;;;;;;16.37;9.37;;;8.10;99.90;;;;;;5041765;28;20233;-83
2022/12/30 15:42:53;;;;;;;13.13;9.23;;;8.10;99.90;;;;;;5057850;28;20168;-84
2022/12/30 15:45:41;;;;;;;10.03;6.23;;;8.10;99.90;;;;;;5061501;28;20192;-83
2022/12/30 15:48:42;;;;;;;10.43;5.97;;;8.00;99.90;;;;;;5057138;28;20227;-83
2022/12/30 15:51:18;;;;;;;39.37;21.67;;;8.00;99.90;;;;;;5018924;28;20694;-83
2022/12/30 15:53:53;;;;;;;6.53;4.13;;;8.00;99.90;;;;;;5050701;28;20544;-83
2022/12/30 15:56:20;;;;;;;6.03;4.10;;;8.00;99.90;;;;;;5055286;28;20187;-83
2022/12/30 15:58:58;;;;;;;5.70;4.30;;;8.00;99.90;;;;;;5056002;28;20220;-82
2022/12/30 16:01:37;;;;;;;10.07;6.23;;;8.00;99.90;;;;;;5040898;28;20152;-82
2022/12/30 16:04:18;;;;;;;10.77;6.77;;;8.00;99.90;;;;;;5040567;28;20162;-82
2022/12/30 16:06:49;;;;;;;9.90;6.73;;;8.00;99.90;;;;;;5055536;28;20187;-82
2022/12/30 16:09:37;;;;;;;15.70;9.57;;;8.00;99.90;;;;;;5055065;28;20788;-82
2022/12/30 16:12:20;;;;;;;32.23;19.40;;;8.00;99.90;;;;;;5056030;28;20182;-83
2022/12/30 16:15:05;;;;;;;418.10;248.43;;;8.10;99.90;;;;;;5041256;28;20168;-83
2022/12/30 16:17:54;;;;;;;32.80;19.57;;;8.10;99.90;;;;;;5041196;28;20183;-82
2022/12/30 16:20:23;;;;;;;12.23;6.43;;;8.20;99.90;;;;;;5042037;28;20265;-82
2022/12/30 16:22:49;;;;;;;7.43;4.93;;;8.20;99.90;;;;;;5058724;28;20180;-82
2022/12/30 16:25:22;;;;;;;18.10;9.63;;;8.10;99.90;;;;;;5044384;28;20660;-83
2022/12/30 16:27:48;;;;;;;10.50;5.00;;;8.00;99.90;;;;;;5040845;28;20259;-82
2022/12/30 16:30:26;;;;;;;7.03;4.83;;;7.90;99.90;;;;;;5042320;28;20561;-82
2022/12/30 16:32:52;;;;;;;5.93;3.83;;;7.80;99.90;;;;;;5057561;28;20171;-82
2022/12/30 16:35:17;;;;;;;8.10;4.13;;;7.70;99.90;;;;;;5042785;28;20186;-82
2022/12/30 16:37:43;;;;;;;6.23;4.03;;;7.70;99.90;;;;;;5042724;28;20303;-82
2022/12/30 16:40:19;;;;;;;7.37;4.07;;;7.70;99.90;;;;;;5042508;28;20207;-82
